Time;durP1;ratioP1;P1;durP2;ratioP2;P2;SDS_P1;SDS_P2;PMS_P1;PMS_P2;Temp;Humidity;BMP_temperature;BMP_pressure;BME280_temperature;BME280_humidity;BME280_pressure;Samples;Min_cycle;Max_cycle;Signal;HPM_P1;HPM_P2
2023/02/03 00:00:00;;;;;;;12.77;4.37;;;;;;;-1.94;100.00;101482.84;5012285;28;20240;-76
2023/02/03 00:02:27;;;;;;;8.70;4.50;;;;;;;-1.88;100.00;101488.22;5005231;28;20299;-76
2023/02/03 00:04:54;;;;;;;8.20;4.77;;;;;;;-1.87;100.00;101478.84;5004520;28;20214;-77
2023/02/03 00:07:20;;;;;;;11.00;4.40;;;;;;;-1.84;100.00;101476.44;5005458;28;20201;-77
2023/02/03 00:09:47;;;;;;;7.90;3.83;;;;;;;-1.82;100.00;101483.31;5007147;28;20208;-76
2023/02/03 00:12:14;;;;;;;10.90;4.53;;;;;;;-1.78;100.00;101474.09;5003876;28;20244;-77
2023/02/03 00:14:40;;;;;;;9.13;3.93;;;;;;;-1.72;100.00;101464.09;5020118;23;20220;-75
2023/02/03 00:17:08;;;;;;;8.27;4.23;;;;;;;-1.67;100.00;101460.03;5014456;28;20199;-76
2023/02/03 00:19:34;;;;;;;8.00;3.90;;;;;;;-1.60;100.00;101462.00;5010456;28;20217;-75
2023/02/03 00:22:01;;;;;;;14.20;5.07;;;;;;;-1.57;100.00;101445.88;5011673;28;20276;-75
2023/02/03 00:24:28;;;;;;;6.50;4.20;;;;;;;-1.55;100.00;101434.91;5010548;28;20319;-75
2023/02/03 00:26:54;;;;;;;9.03;4.83;;;;;;;-1.50;100.00;101431.63;5012854;28;20725;-75
2023/02/03 00:29:24;;;;;;;8.77;4.77;;;;;;;-1.47;100.00;101426.63;5014059;28;20200;-76
2023/02/03 00:31:51;;;;;;;8.73;4.77;;;;;;;-1.43;100.00;101429.34;5011841;28;20200;-75
2023/02/03 00:34:19;;;;;;;9.47;4.60;;;;;;;-1.41;100.00;101424.28;5010643;28;20248;-75
2023/02/03 00:36:47;;;;;;;12.33;4.93;;;;;;;-1.36;100.00;101415.09;5019131;28;20265;-75
2023/02/03 00:39:13;;;;;;;12.23;5.13;;;;;;;-1.35;100.00;101415.13;5021722;28;20254;-75
2023/02/03 00:41:40;;;;;;;17.57;5.63;;;;;;;-1.33;100.00;101410.94;5009933;28;20286;-76
2023/02/03 00:44:06;;;;;;;13.03;5.30;;;;;;;-1.31;100.00;101405.88;5016236;28;20656;-75
2023/02/03 00:46:34;;;;;;;9.70;5.23;;;;;;;-1.27;100.00;101405.16;5014055;28;20692;-75
2023/02/03 00:49:02;;;;;;;14.03;4.87;;;;;;;-1.23;100.00;101396.78;5012251;28;20276;-75
2023/02/03 00:51:30;;;;;;;9.40;5.20;;;;;;;-1.21;100.00;101386.63;5007194;28;20224;-75
2023/02/03 00:53:57;;;;;;;13.47;5.27;;;;;;;-1.15;100.00;101381.69;5009621;28;20291;-75
2023/02/03 00:56:23;;;;;;;11.67;4.90;;;;;;;-1.10;100.00;101379.28;5024387;28;20474;-75
2023/02/03 00:58:50;;;;;;;13.33;5.53;;;;;;;-1.07;100.00;101376.81;5010902;28;20212;-75
2023/02/03 01:01:17;;;;;;;8.87;5.13;;;;;;;-1.03;100.00;101368.44;5019487;28;20240;-75
2023/02/03 01:03:43;;;;;;;9.93;5.20;;;;;;;-0.97;100.00;101368.63;5020710;28;20224;-75
2023/02/03 01:06:12;;;;;;;11.57;5.63;;;;;;;-0.94;100.00;101361.06;5012969;28;20197;-75
2023/02/03 01:08:39;;;;;;;15.87;5.83;;;;;;;-0.88;100.00;101352.69;5017006;28;20265;-75
2023/02/03 01:11:08;;;;;;;11.90;5.57;;;;;;;-0.80;100.00;101349.56;5010378;28;20206;-75
2023/02/03 01:13:34;;;;;;;9.47;5.20;;;;;;;-0.79;100.00;101338.50;5013598;28;20232;-75
2023/02/03 01:16:01;;;;;;;10.27;4.90;;;;;;;-0.72;100.00;101331.91;5011842;28;20197;-75
2023/02/03 01:18:28;;;;;;;8.70;4.97;;;;;;;-0.67;100.00;101322.66;5011165;28;20566;-75
2023/02/03 01:20:54;;;;;;;11.67;5.40;;;;;;;-0.62;100.00;101323.66;5014557;28;20263;-75
2023/02/03 01:23:21;;;;;;;11.47;5.13;;;;;;;-0.54;100.00;101305.09;5009547;28;20244;-75
2023/02/03 01:25:48;;;;;;;11.60;5.00;;;;;;;-0.49;100.00;101298.41;5011236;28;20743;-75
2023/02/03 01:28:15;;;;;;;8.03;5.00;;;;;;;-0.43;100.00;101307.13;5008232;28;20292;-75
2023/02/03 01:30:41;;;;;;;10.73;5.50;;;;;;;-0.43;100.00;101312.25;5010785;28;20307;-75
2023/02/03 01:33:08;;;;;;;6.87;4.53;;;;;;;-0.40;100.00;101309.81;5008206;28;20221;-75
2023/02/03 01:35:35;;;;;;;8.23;4.70;;;;;;;-0.38;100.00;101304.72;5008703;28;20192;-75
2023/02/03 01:38:02;;;;;;;7.87;4.57;;;;;;;-0.35;100.00;101307.38;5016273;28;20753;-75
2023/02/03 01:40:30;;;;;;;12.43;4.70;;;;;;;-0.26;100.00;101299.09;5006636;28;20869;-75
2023/02/03 01:42:58;;;;;;;8.27;4.00;;;;;;;-0.22;100.00;101291.53;5011318;28;20612;-75
2023/02/03 01:45:24;;;;;;;11.83;4.27;;;;;;;-0.16;100.00;101292.53;5013423;28;20192;-75
2023/02/03 01:47:55;;;;;;;10.77;4.60;;;;;;;-0.11;100.00;101286.69;5008443;28;20200;-76
2023/02/03 01:50:25;;;;;;;6.47;4.37;;;;;;;-0.02;100.00;101283.53;5007569;28;20220;-75
2023/02/03 01:52:55;;;;;;;8.00;3.70;;;;;;;-0.02;100.00;101279.28;5011906;28;20225;-75
2023/02/03 01:55:27;;;;;;;6.80;3.47;;;;;;;0.02;100.00;101287.03;5009417;28;20217;-75
2023/02/03 01:57:59;;;;;;;6.10;3.73;;;;;;;0.01;100.00;101282.75;5011408;28;20289;-75
2023/02/03 02:00:27;;;;;;;8.27;4.33;;;;;;;0.05;100.00;101264.06;5007863;28;20224;-75
2023/02/03 02:02:58;;;;;;;9.13;4.30;;;;;;;0.09;100.00;101263.28;4998786;28;20231;-75
2023/02/03 02:05:30;;;;;;;7.70;3.93;;;;;;;0.12;100.00;101258.25;5007805;28;20224;-75
2023/02/03 02:07:59;;;;;;;12.50;3.53;;;;;;;0.15;100.00;101243.81;5007615;28;20239;-76
2023/02/03 02:10:26;;;;;;;4.07;3.10;;;;;;;0.16;100.00;101247.28;5000583;28;20232;-76
2023/02/03 02:12:56;;;;;;;7.33;3.33;;;;;;;0.18;100.00;101238.78;5009739;28;20252;-75
2023/02/03 02:15:25;;;;;;;5.37;3.27;;;;;;;0.19;100.00;101231.94;5007564;28;20613;-75
2023/02/03 02:18:12;;;;;;;8.07;3.03;;;;;;;0.22;100.00;101233.72;5009273;28;20692;-75
2023/02/03 02:21:22;;;;;;;5.43;3.50;;;;;;;0.24;100.00;101230.38;5006527;28;20251;-75
2023/02/03 02:24:17;;;;;;;4.37;3.10;;;;;;;0.25;100.00;101214.16;4990008;28;20233;-75
2023/02/03 02:26:54;;;;;;;6.30;3.03;;;;;;;0.29;100.00;101203.13;5005104;28;20205;-74
2023/02/03 02:29:54;;;;;;;6.57;2.83;;;;;;;0.29;100.00;101204.84;5016509;28;20192;-74
2023/02/03 02:32:30;;;;;;;9.07;3.20;;;;;;;0.30;100.00;101201.44;5010323;28;20391;-74
2023/02/03 02:35:06;;;;;;;6.20;3.60;;;;;;;0.30;100.00;101188.59;5002484;28;20200;-74
2023/02/03 02:37:47;;;;;;;7.53;3.47;;;;;;;0.29;100.00;101186.88;5008397;28;20223;-74
2023/02/03 02:40:24;;;;;;;9.80;3.80;;;;;;;0.29;100.00;101179.19;5022076;28;20310;-74
2023/02/03 02:43:01;;;;;;;8.97;3.60;;;;;;;0.28;100.00;101170.63;5012144;28;20315;-74
2023/02/03 02:45:32;;;;;;;8.17;3.83;;;;;;;0.27;100.00;101168.03;5004981;28;20205;-74
2023/02/03 02:48:07;;;;;;;5.53;3.60;;;;;;;0.27;100.00;101156.06;5005963;28;20728;-74
2023/02/03 02:50:40;;;;;;;6.63;3.43;;;;;;;0.29;100.00;101156.97;5015624;28;20290;-74
2023/02/03 02:53:09;;;;;;;7.10;3.50;;;;;;;0.28;100.00;101141.53;5016772;28;20219;-74
2023/02/03 02:55:41;;;;;;;8.50;3.67;;;;;;;0.26;100.00;101132.94;5003191;28;20222;-74
2023/02/03 02:58:12;;;;;;;6.23;3.57;;;;;;;0.27;100.00;101125.28;5002702;28;20196;-74
2023/02/03 03:00:40;;;;;;;10.77;4.13;;;;;;;0.25;100.00;101116.69;5010276;28;20669;-74
2023/02/03 03:03:12;;;;;;;7.00;3.83;;;;;;;0.24;100.00;101107.25;5006215;28;21010;-74
2023/02/03 03:05:41;;;;;;;5.07;3.30;;;;;;;0.23;100.00;101097.84;5008841;28;20573;-73
2023/02/03 03:08:12;;;;;;;7.13;3.47;;;;;;;0.21;100.00;101094.34;5007175;28;20212;-74
2023/02/03 03:10:40;;;;;;;4.17;2.83;;;;;;;0.24;100.00;101088.44;5007333;28;20299;-74
2023/02/03 03:13:12;;;;;;;4.93;3.53;;;;;;;0.22;100.00;101077.28;5003025;28;20220;-73
2023/02/03 03:15:41;;;;;;;6.00;3.53;;;;;;;0.21;100.00;101081.53;5012302;28;20204;-73
2023/02/03 03:18:15;;;;;;;7.60;3.40;;;;;;;0.20;100.00;101072.13;5020943;28;20239;-74
2023/02/03 03:20:43;;;;;;;5.13;3.00;;;;;;;0.21;100.00;101071.25;5025408;28;20200;-74
2023/02/03 03:23:19;;;;;;;4.80;3.50;;;;;;;0.21;100.00;101083.22;5006944;28;20310;-74
2023/02/03 03:25:49;;;;;;;5.77;3.07;;;;;;;0.21;100.00;101071.25;5009667;28;20208;-74
2023/02/03 03:28:25;;;;;;;6.23;3.40;;;;;;;0.20;100.00;101061.84;5008876;28;20196;-74
2023/02/03 03:30:52;;;;;;;5.57;3.37;;;;;;;0.21;100.00;101068.69;5008516;28;20201;-73
2023/02/03 03:33:21;;;;;;;7.53;3.33;;;;;;;0.20;100.00;101055.88;5008583;28;20227;-73
2023/02/03 03:35:55;;;;;;;6.33;3.03;;;;;;;0.18;100.00;101049.00;5001128;28;20232;-74
2023/02/03 03:38:25;;;;;;;4.17;3.20;;;;;;;0.19;100.00;101037.03;5007255;28;20276;-73
2023/02/03 03:40:57;;;;;;;3.17;2.67;;;;;;;0.18;100.00;101032.75;5023041;28;20201;-74
2023/02/03 03:43:29;;;;;;;3.47;2.67;;;;;;;0.20;100.00;101019.97;5002928;28;20226;-73
2023/02/03 03:46:00;;;;;;;5.43;3.00;;;;;;;0.20;100.00;101004.56;5015066;28;20195;-73
2023/02/03 03:48:35;;;;;;;3.70;2.30;;;;;;;0.20;100.00;100996.88;5014981;28;20196;-74
2023/02/03 03:51:04;;;;;;;4.83;2.57;;;;;;;0.22;100.00;100990.94;5016460;28;20208;-74
2023/02/03 03:53:34;;;;;;;4.50;2.80;;;;;;;0.23;100.00;100982.44;5011825;28;20239;-74
2023/02/03 03:56:03;;;;;;;3.07;2.47;;;;;;;0.23;100.00;100969.59;5012583;28;20239;-74
2023/02/03 03:58:31;;;;;;;3.87;2.20;;;;;;;0.24;100.00;100971.31;5009296;28;20204;-74
2023/02/03 04:01:00;;;;;;;2.63;2.33;;;;;;;0.25;100.00;100955.09;5011075;28;20577;-74
2023/02/03 04:03:33;;;;;;;2.27;1.83;;;;;;;0.27;100.00;100942.31;5013427;28;20258;-74
2023/02/03 04:05:59;;;;;;;3.60;2.30;;;;;;;0.27;100.00;100934.63;5009944;28;20254;-74
2023/02/03 04:08:26;;;;;;;4.90;2.67;;;;;;;0.28;100.00;100926.06;5012601;28;20200;-74
2023/02/03 04:10:52;;;;;;;4.70;2.43;;;;;;;0.30;100.00;100926.97;5010082;28;20216;-74
2023/02/03 04:13:19;;;;;;;4.90;3.33;;;;;;;0.31;100.00;100923.59;5010751;28;20715;-74
2023/02/03 04:15:45;;;;;;;4.87;3.13;;;;;;;0.31;100.00;100909.03;5010211;28;20204;-74
2023/02/03 04:18:13;;;;;;;8.63;3.63;;;;;;;0.32;100.00;100908.22;5009385;28;20565;-74
2023/02/03 04:20:42;;;;;;;5.90;2.63;;;;;;;0.34;100.00;100892.88;5008101;28;20228;-74
2023/02/03 04:23:09;;;;;;;4.70;2.87;;;;;;;0.35;100.00;100892.91;5014471;28;20393;-74
2023/02/03 04:25:35;;;;;;;7.87;3.17;;;;;;;0.38;100.00;100890.38;5010527;28;20204;-74
2023/02/03 04:28:02;;;;;;;5.53;2.80;;;;;;;0.43;100.00;100895.59;5009197;28;20281;-74
2023/02/03 04:30:29;;;;;;;3.40;2.30;;;;;;;0.49;100.00;100887.16;5011235;28;20554;-74
2023/02/03 04:32:55;;;;;;;4.70;2.20;;;;;;;0.49;100.00;100885.47;5025540;28;20232;-74
2023/02/03 04:35:22;;;;;;;3.13;2.10;;;;;;;0.51;100.00;100888.03;5012109;28;20232;-74
2023/02/03 04:37:49;;;;;;;3.40;2.20;;;;;;;0.56;100.00;100878.75;5002232;28;20209;-74
2023/02/03 04:40:16;;;;;;;3.93;2.37;;;;;;;0.61;100.00;100877.13;5008281;28;20211;-74
2023/02/03 04:42:43;;;;;;;4.07;2.00;;;;;;;0.68;100.00;100875.53;5024708;28;20299;-74
2023/02/03 04:45:12;;;;;;;2.27;1.80;;;;;;;0.74;100.00;100867.97;5019750;28;20552;-74
2023/02/03 04:47:39;;;;;;;3.43;2.17;;;;;;;0.80;100.00;100862.94;5012052;28;20212;-74
2023/02/03 04:50:06;;;;;;;4.43;2.10;;;;;;;0.86;100.00;100860.50;5028475;28;20211;-74
2023/02/03 04:52:32;;;;;;;3.63;1.77;;;;;;;0.90;100.00;100854.56;5010761;28;20196;-74
2023/02/03 04:55:00;;;;;;;2.50;2.07;;;;;;;1.02;100.00;100846.19;5007514;28;20203;-74
2023/02/03 04:57:27;;;;;;;2.63;1.93;;;;;;;1.12;100.00;100837.78;5005486;28;20245;-74
2023/02/03 04:59:53;;;;;;;3.47;2.60;;;;;;;1.19;100.00;100835.31;5005228;28;20228;-74
2023/02/03 05:02:19;;;;;;;3.27;2.67;;;;;;;1.28;100.00;100835.47;5005556;28;20680;-74
2023/02/03 05:04:46;;;;;;;4.27;2.70;;;;;;;1.38;100.00;100827.06;5012456;28;20331;-74
2023/02/03 05:07:12;;;;;;;4.73;2.97;;;;;;;1.50;100.00;100823.81;5010024;28;20582;-74
2023/02/03 05:09:39;;;;;;;5.20;3.63;;;;;;;1.57;100.00;100809.34;5010516;28;20203;-74
2023/02/03 05:12:07;;;;;;;5.10;3.47;;;;;;;1.60;100.00;100802.53;5008683;28;20211;-74
2023/02/03 05:14:33;;;;;;;5.30;3.87;;;;;;;1.74;100.00;100801.81;5019364;28;20228;-74
2023/02/03 05:16:59;;;;;;;6.40;4.17;;;;;;;1.74;100.00;100797.53;5009973;28;20206;-74
2023/02/03 05:19:26;;;;;;;6.60;4.10;;;;;;;1.82;100.00;100789.94;5004071;28;20414;-74
2023/02/03 05:21:52;;;;;;;7.80;4.93;;;;;;;1.87;100.00;100793.44;5012175;28;20204;-74
2023/02/03 05:24:18;;;;;;;6.37;4.53;;;;;;;1.94;100.00;100791.81;5005972;28;20236;-74
2023/02/03 05:26:45;;;;;;;6.17;4.40;;;;;;;1.96;100.00;100790.13;5008465;28;20543;-75
2023/02/03 05:29:13;;;;;;;7.73;4.93;;;;;;;1.97;100.00;100774.69;5006190;28;20196;-75
2023/02/03 05:31:39;;;;;;;5.57;4.17;;;;;;;2.00;100.00;100769.56;5009690;28;20235;-74
2023/02/03 05:34:05;;;;;;;7.27;4.50;;;;;;;2.05;100.00;100762.78;5003963;28;20766;-74
2023/02/03 05:36:32;;;;;;;8.10;5.47;;;;;;;2.16;100.00;100780.03;5007338;28;20215;-74
2023/02/03 05:38:58;;;;;;;6.27;4.93;;;;;;;2.19;100.00;100774.94;5011271;28;20197;-74
2023/02/03 05:44:10;;;;;;;9.43;6.03;;;;;;;2.25;100.00;100768.16;5013627;28;20212;-74
2023/02/03 05:46:38;;;;;;;9.80;6.13;;;;;;;2.31;100.00;100767.34;5004269;28;20854;-74
2023/02/03 05:49:04;;;;;;;9.03;5.87;;;;;;;2.38;100.00;100765.69;5005333;28;20725;-75
2023/02/03 05:51:31;;;;;;;11.13;7.03;;;;;;;2.42;100.00;100770.00;5009537;28;20197;-75
2023/02/03 05:53:57;;;;;;;10.00;6.60;;;;;;;2.46;100.00;100764.03;5011876;28;20224;-75
2023/02/03 05:56:24;;;;;;;13.17;6.90;;;;;;;2.50;100.00;100754.63;5020835;28;20205;-75
2023/02/03 05:58:52;;;;;;;9.40;6.20;;;;;;;2.53;100.00;100764.97;5005551;28;20605;-75
2023/02/03 06:01:19;;;;;;;8.70;5.23;;;;;;;2.57;100.00;100751.25;5004991;28;20311;-75
2023/02/03 06:03:47;;;;;;;9.47;6.30;;;;;;;2.63;100.00;100769.34;5000823;28;20236;-75
2023/02/03 06:06:13;;;;;;;10.57;7.17;;;;;;;2.75;100.00;100759.16;5005703;28;20197;-75
2023/02/03 06:08:40;;;;;;;10.73;7.13;;;;;;;2.75;100.00;100746.28;5001259;28;20204;-75
2023/02/03 06:11:06;;;;;;;11.70;6.43;;;;;;;2.76;100.00;100753.16;4999787;28;20206;-75
2023/02/03 06:13:32;;;;;;;9.90;6.40;;;;;;;2.79;100.00;100750.59;5016095;23;20272;-76
2023/02/03 06:15:59;;;;;;;12.03;6.83;;;;;;;2.83;100.00;100741.19;5026244;28;20196;-76
2023/02/03 06:18:25;;;;;;;10.97;6.07;;;;;;;2.93;100.00;100729.25;5026287;28;20201;-76
2023/02/03 06:20:53;;;;;;;14.23;7.30;;;;;;;2.98;100.00;100723.25;5026469;28;20318;-75
2023/02/03 06:23:20;;;;;;;11.60;7.20;;;;;;;3.03;100.00;100720.72;5024416;28;20253;-76
2023/02/03 06:25:48;;;;;;;13.10;7.63;;;;;;;3.08;100.00;100720.72;5026585;28;20203;-75
2023/02/03 06:28:15;;;;;;;11.53;7.07;;;;;;;3.14;100.00;100719.06;5022661;28;20585;-76
2023/02/03 06:30:41;;;;;;;12.43;7.73;;;;;;;3.30;100.00;100706.28;5026658;28;20208;-76
2023/02/03 06:33:08;;;;;;;15.33;8.20;;;;;;;3.33;100.00;100708.88;5024369;28;20202;-76
2023/02/03 06:35:34;;;;;;;13.10;7.97;;;;;;;3.36;100.00;100696.84;5024564;28;20202;-76
2023/02/03 06:38:02;;;;;;;13.70;8.17;;;;;;;3.48;100.00;100685.72;5022463;28;20203;-76
2023/02/03 06:40:28;;;;;;;13.63;8.20;;;;;;;3.55;100.00;100684.91;5023789;28;20212;-75
2023/02/03 06:42:55;;;;;;;14.57;8.23;;;;;;;3.60;100.00;100690.91;5024052;28;20180;-75
2023/02/03 06:45:23;;;;;;;14.97;8.10;;;;;;;3.65;100.00;100674.63;5026319;28;20243;-75
2023/02/03 06:47:50;;;;;;;15.73;7.93;;;;;;;3.68;100.00;100667.75;5023063;28;20277;-74
2023/02/03 06:50:16;;;;;;;15.10;8.17;;;;;;;3.69;100.00;100661.72;5026778;28;20192;-74
2023/02/03 06:52:43;;;;;;;13.87;8.07;;;;;;;3.68;100.00;100651.44;5021296;28;20228;-75
2023/02/03 06:55:11;;;;;;;14.07;7.87;;;;;;;3.70;100.00;100650.56;5024445;28;20247;-75
2023/02/03 06:57:43;;;;;;;13.60;7.33;;;;;;;3.72;100.00;100643.69;5021538;28;20204;-75
2023/02/03 07:00:12;;;;;;;12.33;7.23;;;;;;;3.75;100.00;100635.09;5022689;28;20224;-75
2023/02/03 07:02:38;;;;;;;12.73;7.03;;;;;;;3.75;100.00;100641.13;5018478;28;20256;-74
2023/02/03 07:05:05;;;;;;;13.97;7.07;;;;;;;3.78;100.00;100638.56;5022238;28;20234;-75
2023/02/03 07:07:32;;;;;;;12.93;7.83;;;;;;;3.81;100.00;100644.56;5022613;28;20208;-75
2023/02/03 07:09:59;;;;;;;13.73;7.93;;;;;;;3.81;100.00;100647.16;5022457;28;20204;-75
2023/02/03 07:12:27;;;;;;;13.90;7.83;;;;;;;3.86;100.00;100645.44;5021900;28;20234;-75
2023/02/03 07:14:54;;;;;;;15.97;8.40;;;;;;;3.91;100.00;100648.88;5023863;28;20219;-75
2023/02/03 07:17:20;;;;;;;18.80;8.57;;;;;;;3.90;100.00;100642.00;5025022;28;20224;-75
2023/02/03 07:19:46;;;;;;;13.53;7.37;;;;;;;3.97;100.00;100648.88;5026252;28;20440;-75
2023/02/03 07:22:13;;;;;;;13.23;7.50;;;;;;;4.01;100.00;100642.00;5022987;28;20200;-75
2023/02/03 07:24:40;;;;;;;14.63;8.60;;;;;;;4.05;100.00;100623.13;5028545;28;20219;-75
2023/02/03 07:27:06;;;;;;;16.13;8.07;;;;;;;4.08;100.00;100630.84;5027972;28;20192;-75
2023/02/03 07:29:34;;;;;;;12.57;6.87;;;;;;;4.11;100.00;100630.84;5025778;28;20196;-75
2023/02/03 07:32:01;;;;;;;12.13;7.43;;;;;;;4.13;100.00;100631.69;5025714;28;20200;-75
2023/02/03 07:34:28;;;;;;;14.97;8.13;;;;;;;4.16;100.00;100627.41;5027659;28;20764;-75
2023/02/03 07:36:54;;;;;;;15.50;8.33;;;;;;;4.16;100.00;100621.38;5022112;28;20206;-75
2023/02/03 07:39:20;;;;;;;14.83;7.63;;;;;;;4.17;100.00;100616.22;5028601;28;20199;-75
2023/02/03 07:41:47;;;;;;;14.83;8.20;;;;;;;4.21;100.00;100619.66;5028142;28;20224;-75
2023/02/03 07:44:13;;;;;;;15.13;7.87;;;;;;;4.24;100.00;100603.31;5028574;28;20212;-75
2023/02/03 07:46:43;;;;;;;16.53;9.37;;;;;;;4.27;100.00;100591.25;5027871;28;20199;-75
2023/02/03 07:49:10;;;;;;;18.73;8.27;;;;;;;4.31;100.00;100587.84;5026206;28;20195;-75
2023/02/03 07:51:36;;;;;;;14.23;7.83;;;;;;;4.35;100.00;100588.69;5024990;28;20201;-76
2023/02/03 07:54:03;;;;;;;14.93;8.23;;;;;;;4.37;100.00;100576.63;5025524;28;20220;-76
2023/02/03 07:56:31;;;;;;;16.73;8.37;;;;;;;4.37;100.00;100574.06;5026740;28;20196;-75
2023/02/03 07:58:58;;;;;;;18.30;8.83;;;;;;;4.37;100.00;100571.47;5022759;28;20195;-76
2023/02/03 08:01:25;;;;;;;16.47;8.37;;;;;;;4.40;100.00;100558.56;5032027;28;20270;-75
2023/02/03 08:03:53;;;;;;;13.83;7.40;;;;;;;4.43;100.00;100555.09;5028027;28;20577;-74
2023/02/03 08:06:20;;;;;;;17.63;8.77;;;;;;;4.49;100.00;100537.03;5028799;28;20200;-75
2023/02/03 08:08:46;;;;;;;15.10;7.70;;;;;;;4.51;100.00;100543.91;5028033;28;20223;-75
2023/02/03 08:11:13;;;;;;;16.57;8.77;;;;;;;4.54;100.00;100546.47;5027713;28;20195;-75
2023/02/03 08:13:39;;;;;;;18.10;9.17;;;;;;;4.55;100.00;100527.53;5028499;28;20230;-75
2023/02/03 08:16:06;;;;;;;15.37;8.17;;;;;;;4.57;100.00;100531.84;5027165;28;20207;-75
2023/02/03 08:18:33;;;;;;;18.27;8.57;;;;;;;4.59;100.00;100535.25;5027402;28;20200;-75
2023/02/03 08:21:02;;;;;;;13.03;8.03;;;;;;;4.61;100.00;100526.66;5027228;28;21864;-75
2023/02/03 08:23:28;;;;;;;12.77;7.70;;;;;;;4.62;100.00;100512.88;5027912;28;20277;-75
2023/02/03 08:25:55;;;;;;;14.93;8.63;;;;;;;4.69;100.00;100501.66;5024465;28;20206;-75
2023/02/03 08:28:21;;;;;;;14.20;8.43;;;;;;;4.73;100.00;100510.25;5044121;28;20731;-75
2023/02/03 08:30:48;;;;;;;14.30;8.17;;;;;;;4.75;100.00;100500.78;5027192;28;20206;-75
2023/02/03 08:33:15;;;;;;;11.73;7.77;;;;;;;4.78;100.00;100487.84;5025784;28;20290;-76
2023/02/03 08:35:46;;;;;;;17.60;8.00;;;;;;;4.78;100.00;100480.09;5024201;28;20531;-76
2023/02/03 08:38:13;;;;;;;14.17;7.67;;;;;;;4.82;100.00;100484.41;5024650;28;20207;-76
2023/02/03 08:40:40;;;;;;;14.27;8.07;;;;;;;4.88;100.00;100470.59;5028179;28;20576;-75
2023/02/03 08:43:06;;;;;;;15.10;7.57;;;;;;;4.90;100.00;100480.03;5026625;28;20196;-75
2023/02/03 08:45:33;;;;;;;12.53;7.50;;;;;;;4.92;100.00;100478.31;5025315;28;20279;-76
2023/02/03 08:48:00;;;;;;;20.47;9.93;;;;;;;4.92;100.00;100462.81;5022430;28;20196;-75
2023/02/03 08:50:26;;;;;;;17.83;9.30;;;;;;;4.92;100.00;100470.56;5022960;28;20188;-75
2023/02/03 08:52:52;;;;;;;16.23;8.60;;;;;;;4.90;100.00;100459.34;5026480;28;20669;-76
2023/02/03 08:55:20;;;;;;;14.97;8.10;;;;;;;4.92;100.00;100467.09;5021611;28;20235;-75
2023/02/03 08:57:47;;;;;;;12.27;7.83;;;;;;;4.96;100.00;100460.19;5026163;28;20207;-75
2023/02/03 09:00:14;;;;;;;16.70;9.23;;;;;;;4.98;100.00;100450.69;5027633;28;20604;-76
2023/02/03 09:02:41;;;;;;;16.30;9.10;;;;;;;4.98;100.00;100446.41;5028863;28;20196;-75
2023/02/03 09:05:08;;;;;;;12.07;8.07;;;;;;;5.01;100.00;100438.63;5025001;28;20230;-76
2023/02/03 09:07:34;;;;;;;12.20;7.60;;;;;;;5.01;100.00;100435.19;5024082;28;20192;-76
2023/02/03 09:10:01;;;;;;;11.27;7.37;;;;;;;5.01;100.00;100430.88;5023170;28;20193;-75
2023/02/03 09:12:29;;;;;;;13.33;8.30;;;;;;;5.02;100.00;100431.75;5025646;28;20207;-76
2023/02/03 09:14:55;;;;;;;11.83;7.53;;;;;;;5.03;100.00;100418.81;5036252;28;20228;-76
2023/02/03 09:17:22;;;;;;;11.27;7.10;;;;;;;5.03;100.00;100408.50;5023333;28;20338;-77
2023/02/03 09:19:48;;;;;;;13.87;7.97;;;;;;;5.04;100.00;100417.09;5022355;28;20196;-77
2023/02/03 09:22:15;;;;;;;17.00;8.57;;;;;;;5.05;100.00;100408.47;5039501;28;20273;-75
2023/02/03 09:24:42;;;;;;;11.63;7.73;;;;;;;5.06;100.00;100399.84;5023458;28;20231;-76
2023/02/03 09:27:08;;;;;;;15.07;8.20;;;;;;;5.10;100.00;100393.78;5023672;28;20207;-75
2023/02/03 09:29:36;;;;;;;11.67;7.20;;;;;;;5.10;100.00;100396.34;5026050;28;20208;-76
2023/02/03 09:32:06;;;;;;;13.63;8.10;;;;;;;5.08;100.00;100392.94;5026754;28;20188;-76
2023/02/03 09:34:32;;;;;;;11.13;7.57;;;;;;;5.09;100.00;100381.75;5023532;28;20228;-76
2023/02/03 09:36:59;;;;;;;11.63;6.90;;;;;;;5.10;100.00;100379.16;5018278;28;20298;-76
2023/02/03 09:39:26;;;;;;;12.73;7.17;;;;;;;5.15;100.00;100375.66;5019099;28;20194;-76
2023/02/03 09:42:25;;;;;;;10.00;7.30;;;;;;;5.16;100.00;100362.72;5020335;28;20734;-76
2023/02/03 09:45:02;;;;;;;14.83;8.80;;;;;;;5.17;100.00;100358.41;5018302;28;20318;-76
2023/02/03 09:47:34;;;;;;;11.33;7.47;;;;;;;5.18;100.00;100352.38;5023197;28;20211;-76
2023/02/03 09:50:03;;;;;;;13.90;7.70;;;;;;;5.20;100.00;100340.28;5021636;28;20829;-76
2023/02/03 09:52:33;;;;;;;10.63;6.67;;;;;;;5.19;100.00;100334.28;5018826;28;20203;-77
2023/02/03 09:55:04;;;;;;;11.20;6.57;;;;;;;5.19;100.00;100334.28;5024564;28;20212;-76
2023/02/03 09:57:35;;;;;;;11.13;6.77;;;;;;;5.22;100.00;100325.63;5020669;28;20228;-76
2023/02/03 10:00:16;;;;;;;10.90;6.80;;;;;;;5.22;100.00;100326.47;5023267;28;20196;-77
2023/02/03 10:02:52;;;;;;;9.50;6.13;;;;;;;5.22;100.00;100313.53;5025844;28;20236;-76
2023/02/03 10:05:25;;;;;;;9.07;6.07;;;;;;;5.25;100.00;100310.09;5019878;28;20731;-77
2023/02/03 10:07:59;;;;;;;10.93;5.87;;;;;;;5.25;100.00;100305.78;5021844;28;20666;-76
2023/02/03 10:10:35;;;;;;;10.80;6.03;;;;;;;5.24;100.00;100298.91;5025714;28;20211;-77
2023/02/03 10:13:16;;;;;;;8.80;6.00;;;;;;;5.24;100.00;100295.44;5024875;28;20235;-77
2023/02/03 10:16:02;;;;;;;7.83;5.47;;;;;;;5.24;100.00;100293.75;5022450;28;20192;-77
2023/02/03 10:18:34;;;;;;;8.20;6.03;;;;;;;5.23;100.00;100286.00;5020658;28;20199;-76
2023/02/03 10:21:06;;;;;;;8.47;5.70;;;;;;;5.22;100.00;100289.44;5026638;28;20218;-77
2023/02/03 10:23:36;;;;;;;7.87;5.77;;;;;;;5.22;100.00;100287.69;5026119;28;20599;-76
2023/02/03 10:26:07;;;;;;;8.07;5.57;;;;;;;5.21;100.00;100267.06;5023759;28;20371;-77
2023/02/03 10:28:39;;;;;;;7.37;5.03;;;;;;;5.21;100.00;100267.91;5022428;28;20274;-76
2023/02/03 10:31:15;;;;;;;7.40;5.30;;;;;;;5.22;100.00;100276.50;5026574;28;20543;-76
2023/02/03 10:33:42;;;;;;;8.03;5.03;;;;;;;5.23;100.00;100253.25;5021972;28;20289;-76
2023/02/03 10:36:19;;;;;;;6.90;5.30;;;;;;;5.24;100.00;100251.50;5024144;28;20206;-76
2023/02/03 10:38:56;;;;;;;7.90;4.70;;;;;;;5.23;100.00;100247.22;5024199;28;20206;-76
2023/02/03 10:41:23;;;;;;;10.10;4.87;;;;;;;5.22;100.00;100230.84;5026272;28;20219;-77
2023/02/03 10:43:53;;;;;;;6.23;4.20;;;;;;;5.23;100.00;100229.13;5023352;28;20597;-76
2023/02/03 10:46:26;;;;;;;5.10;4.20;;;;;;;5.24;100.00;100225.66;5025988;28;20199;-76
2023/02/03 10:48:54;;;;;;;5.97;4.10;;;;;;;5.28;100.00;100217.84;5025951;28;20192;-76
2023/02/03 10:51:22;;;;;;;6.47;4.27;;;;;;;5.28;100.00;100204.94;5025485;28;20192;-76
2023/02/03 10:53:52;;;;;;;6.57;4.37;;;;;;;5.31;100.00;100204.03;5025694;28;20228;-76
2023/02/03 10:56:23;;;;;;;5.23;4.07;;;;;;;5.35;100.00;100195.38;5025984;28;20282;-76
2023/02/03 10:58:51;;;;;;;4.83;3.07;;;;;;;5.37;100.00;100185.88;5025729;28;20196;-76
2023/02/03 11:01:21;;;;;;;8.40;3.97;;;;;;;5.38;100.00;100184.13;5028601;28;20575;-77
2023/02/03 11:03:58;;;;;;;6.50;4.30;;;;;;;5.38;100.00;100166.91;5028994;28;20226;-76
2023/02/03 11:06:25;;;;;;;4.50;3.50;;;;;;;5.40;100.00;100166.88;5028501;28;20262;-77
2023/02/03 11:08:52;;;;;;;5.93;3.87;;;;;;;5.47;100.00;100153.00;5023621;28;20204;-77
2023/02/03 11:11:24;;;;;;;5.70;3.40;;;;;;;5.49;100.00;100134.00;5026913;28;20211;-76
2023/02/03 11:14:12;;;;;;;5.73;4.20;;;;;;;5.50;100.00;100133.16;5027383;28;20232;-77
2023/02/03 11:16:40;;;;;;;4.27;3.40;;;;;;;5.50;100.00;100137.44;5038439;28;20319;-76
2023/02/03 11:19:15;;;;;;;4.27;3.27;;;;;;;5.48;100.00;100139.19;5022187;28;20207;-76
2023/02/03 11:21:46;;;;;;;3.90;3.10;;;;;;;5.50;100.00;100134.84;5023174;28;20568;-76
2023/02/03 11:24:19;;;;;;;3.83;2.93;;;;;;;5.49;100.00;100128.84;5025527;28;20224;-76
2023/02/03 11:26:49;;;;;;;3.40;2.70;;;;;;;5.49;100.00;100131.44;5040423;28;20202;-76
2023/02/03 11:29:20;;;;;;;3.50;2.87;;;;;;;5.49;100.00;100131.44;5026783;28;20291;-75